Time;durP1;ratioP1;P1;durP2;ratioP2;P2;SDS_P1;SDS_P2;PMS_P1;PMS_P2;Temp;Humidity;BMP_temperature;BMP_pressure;BME280_temperature;BME280_humidity;BME280_pressure;Samples;Min_cycle;Max_cycle;Signal;HPM_P1;HPM_P2
2022/05/23 00:01:45;;;;;;;7.25;4.65;;;;;;;;;;4973663;28;20022;-78
2022/05/23 00:04:11;;;;;;;6.78;4.78;;;;;;;;;;4971832;28;20035;-79
2022/05/23 00:06:37;;;;;;;6.47;4.38;;;;;;;;;;4954418;28;20325;-78
2022/05/23 00:09:03;;;;;;;8.18;4.28;;;;;;;;;;4965937;28;20452;-78
2022/05/23 00:11:29;;;;;;;8.23;4.50;;;;;;;;;;4972578;28;20022;-78
2022/05/23 00:13:55;;;;;;;6.43;4.50;;;;;;;;;;4972867;28;20031;-78
2022/05/23 00:16:23;;;;;;;5.88;4.53;;;;;;;;;;4971308;28;20113;-79
2022/05/23 00:18:50;;;;;;;6.40;4.65;;;;;;;;;;4972176;28;20500;-79
2022/05/23 00:21:16;;;;;;;5.78;4.32;;;;;;;;;;4969477;28;20027;-78
2022/05/23 00:23:43;;;;;;;5.47;4.28;;;;;;;;;;4973244;28;20117;-78
2022/05/23 00:26:11;;;;;;;6.50;4.53;;;;;;;;;;4973308;28;20026;-78
2022/05/23 00:28:37;;;;;;;6.55;4.72;;;;;;;;;;4967929;28;20435;-78
2022/05/23 00:31:03;;;;;;;5.57;4.55;;;;;;;;;;4971097;28;20484;-78
2022/05/23 00:36:14;;;;;;;6.43;4.47;;;;;;;;;;4953833;29;20042;-79
2022/05/23 00:38:40;;;;;;;5.72;4.68;;;;;;;;;;4965724;28;20030;-78
2022/05/23 00:44:01;;;;;;;6.15;4.68;;;;;;;;;;4972629;28;20597;-78
2022/05/23 00:46:27;;;;;;;7.13;5.15;;;;;;;;;;4970662;28;20033;-76
2022/05/23 00:48:53;;;;;;;7.25;4.63;;;;;;;;;;4972854;28;20026;-76
2022/05/23 00:51:20;;;;;;;8.93;6.20;;;;;;;;;;4967345;28;20038;-77
2022/05/23 00:53:52;;;;;;;7.10;5.15;;;;;;;;;;4972639;28;20077;-77
2022/05/23 00:56:20;;;;;;;8.07;5.55;;;;;;;;;;4971228;28;20031;-77
2022/05/23 00:58:48;;;;;;;6.57;5.13;;;;;;;;;;4972400;28;20489;-77
2022/05/23 01:01:16;;;;;;;7.15;5.30;;;;;;;;;;4972238;28;20082;-76
2022/05/23 01:03:42;;;;;;;7.05;5.07;;;;;;;;;;4954034;28;20560;-76
2022/05/23 01:06:09;;;;;;;7.20;5.50;;;;;;;;;;4953197;28;20027;-76
2022/05/23 01:08:36;;;;;;;6.60;5.18;;;;;;;;;;4953103;28;20056;-76
2022/05/23 01:11:03;;;;;;;7.60;5.32;;;;;;;;;;4972610;28;20034;-78
2022/05/23 01:13:29;;;;;;;7.80;5.68;;;;;;;;;;4958599;28;20095;-78
2022/05/23 01:15:55;;;;;;;8.30;5.40;;;;;;;;;;4962441;28;20093;-78
2022/05/23 01:18:21;;;;;;;7.15;5.25;;;;;;;;;;4972601;28;20468;-78
2022/05/23 01:20:52;;;;;;;8.20;6.20;;;;;;;;;;4972435;28;20082;-78
2022/05/23 01:23:24;;;;;;;5.93;4.80;;;;;;;;;;4971957;28;20090;-79
2022/05/23 01:25:50;;;;;;;7.13;5.07;;;;;;;;;;4971261;28;20045;-78
2022/05/23 01:28:17;;;;;;;8.35;5.38;;;;;;;;;;4956465;28;20528;-79
2022/05/23 01:30:43;;;;;;;6.97;5.25;;;;;;;;;;4972481;28;20114;-79
2022/05/23 01:33:10;;;;;;;7.13;5.20;;;;;;;;;;4969954;28;20501;-78
2022/05/23 01:35:36;;;;;;;6.50;5.30;;;;;;;;;;4971783;28;20475;-78
2022/05/23 01:38:03;;;;;;;8.20;5.28;;;;;;;;;;4971150;28;20043;-78
2022/05/23 01:40:30;;;;;;;6.25;4.60;;;;;;;;;;4959252;28;20089;-77
2022/05/23 01:42:56;;;;;;;6.97;4.72;;;;;;;;;;4970552;28;20034;-76
2022/05/23 01:45:24;;;;;;;6.40;4.60;;;;;;;;;;4958345;28;20098;-77
2022/05/23 01:47:50;;;;;;;5.82;4.63;;;;;;;;;;4953095;28;20024;-76
2022/05/23 01:50:16;;;;;;;7.22;4.80;;;;;;;;;;4967640;28;20078;-76
2022/05/23 01:52:43;;;;;;;6.15;4.47;;;;;;;;;;4971496;28;20049;-76
2022/05/23 01:55:09;;;;;;;5.38;4.25;;;;;;;;;;4966563;28;20016;-76
2022/05/23 01:57:35;;;;;;;5.78;4.63;;;;;;;;;;4962491;28;20682;-77
2022/05/23 02:02:47;;;;;;;5.50;4.28;;;;;;;;;;4976067;28;20037;-78
2022/05/23 02:05:14;;;;;;;5.40;4.18;;;;;;;;;;4959859;28;20023;-78
2022/05/23 02:07:40;;;;;;;5.68;4.30;;;;;;;;;;4975619;28;20031;-76
2022/05/23 02:10:06;;;;;;;7.00;5.30;;;;;;;;;;4975342;28;20027;-77
2022/05/23 02:12:33;;;;;;;6.03;4.75;;;;;;;;;;4975580;28;20062;-76
2022/05/23 02:14:59;;;;;;;7.25;4.88;;;;;;;;;;4972922;28;20027;-76
2022/05/23 02:17:25;;;;;;;7.55;5.00;;;;;;;;;;4973660;28;20030;-76
2022/05/23 02:19:51;;;;;;;7.43;5.93;;;;;;;;;;4975176;28;20027;-78
2022/05/23 02:22:17;;;;;;;7.00;5.00;;;;;;;;;;4974246;28;20399;-78
2022/05/23 02:24:43;;;;;;;6.18;5.55;;;;;;;;;;4974996;28;20027;-78
2022/05/23 02:27:09;;;;;;;7.00;5.15;;;;;;;;;;4957338;28;20509;-79
2022/05/23 02:29:35;;;;;;;6.90;4.80;;;;;;;;;;4968743;28;20127;-78
2022/05/23 02:32:01;;;;;;;7.00;4.80;;;;;;;;;;4975292;28;20031;-79
2022/05/23 02:34:27;;;;;;;7.15;5.10;;;;;;;;;;4975040;28;20030;-78
2022/05/23 02:36:53;;;;;;;8.02;5.32;;;;;;;;;;4972741;28;20493;-78
2022/05/23 02:39:20;;;;;;;7.32;5.10;;;;;;;;;;4974948;28;20035;-78
2022/05/23 02:41:46;;;;;;;7.57;4.90;;;;;;;;;;4974035;28;20027;-80
2022/05/23 02:44:12;;;;;;;8.38;5.25;;;;;;;;;;4973707;28;20026;-79
2022/05/23 02:46:38;;;;;;;7.78;5.30;;;;;;;;;;4973964;28;20065;-78
2022/05/23 02:49:06;;;;;;;7.85;5.40;;;;;;;;;;4968932;28;20027;-78
2022/05/23 02:51:32;;;;;;;8.43;5.93;;;;;;;;;;4972526;28;20552;-78
2022/05/23 02:53:58;;;;;;;7.57;5.30;;;;;;;;;;4972759;28;20089;-78
2022/05/23 02:56:24;;;;;;;7.55;5.55;;;;;;;;;;4974589;28;20492;-78
2022/05/23 02:58:50;;;;;;;6.63;5.03;;;;;;;;;;4973428;28;20027;-78
2022/05/23 03:01:16;;;;;;;7.95;6.10;;;;;;;;;;4973073;28;20119;-78
2022/05/23 03:03:42;;;;;;;8.27;6.25;;;;;;;;;;4971663;28;20057;-78
2022/05/23 03:06:08;;;;;;;7.85;6.13;;;;;;;;;;4974805;28;20047;-78
2022/05/23 03:08:35;;;;;;;8.23;6.03;;;;;;;;;;4974614;28;20078;-78
2022/05/23 03:11:02;;;;;;;7.55;5.60;;;;;;;;;;4968052;28;20166;-79
2022/05/23 03:13:28;;;;;;;9.68;6.35;;;;;;;;;;4953884;28;20055;-78
2022/05/23 03:15:54;;;;;;;7.40;5.70;;;;;;;;;;4970154;28;20455;-78
2022/05/23 03:18:21;;;;;;;8.27;5.68;;;;;;;;;;4974486;28;20561;-78
2022/05/23 03:20:47;;;;;;;7.53;5.47;;;;;;;;;;4955940;28;20106;-78
2022/05/23 03:29:00;;;;;;;10.45;6.72;;;;;;;;;;4964558;28;20066;-78
2022/05/23 03:31:30;;;;;;;8.00;6.15;;;;;;;;;;4955149;28;20458;-76
2022/05/23 03:33:56;;;;;;;8.05;6.22;;;;;;;;;;4970368;28;20035;-78
2022/05/23 03:36:23;;;;;;;9.20;6.15;;;;;;;;;;4965296;28;20106;-78
2022/05/23 03:38:49;;;;;;;9.00;6.47;;;;;;;;;;4966249;28;20042;-78
2022/05/23 03:41:15;;;;;;;8.32;6.53;;;;;;;;;;4972567;28;20483;-78
2022/05/23 03:43:41;;;;;;;7.35;6.43;;;;;;;;;;4973925;28;20117;-78
2022/05/23 03:46:08;;;;;;;8.07;6.38;;;;;;;;;;4973475;28;20078;-78
2022/05/23 03:48:34;;;;;;;7.57;6.28;;;;;;;;;;4973870;28;20034;-78
2022/05/23 03:51:01;;;;;;;8.00;6.55;;;;;;;;;;4972615;28;20026;-78
2022/05/23 03:53:27;;;;;;;8.38;6.15;;;;;;;;;;4968024;28;20398;-78
2022/05/23 03:55:53;;;;;;;8.38;6.55;;;;;;;;;;4963966;28;20042;-78
2022/05/23 03:58:19;;;;;;;8.85;6.10;;;;;;;;;;4973675;28;20034;-78
2022/05/23 04:00:49;;;;;;;8.50;6.55;;;;;;;;;;4973700;28;20397;-78
2022/05/23 04:03:15;;;;;;;8.25;6.43;;;;;;;;;;4973201;28;20041;-78
2022/05/23 04:05:41;;;;;;;8.18;6.22;;;;;;;;;;4972505;28;20133;-78
2022/05/23 04:08:08;;;;;;;8.77;6.88;;;;;;;;;;4973200;28;20114;-78
2022/05/23 04:10:34;;;;;;;8.52;7.05;;;;;;;;;;4971594;28;20042;-78
2022/05/23 04:13:02;;;;;;;8.93;7.00;;;;;;;;;;4972621;28;20065;-78
2022/05/23 04:15:28;;;;;;;9.48;7.13;;;;;;;;;;4973008;28;20030;-77
2022/05/23 04:17:54;;;;;;;10.98;6.78;;;;;;;;;;4973052;28;20613;-78
2022/05/23 04:20:20;;;;;;;9.50;6.40;;;;;;;;;;4966035;28;20042;-78
2022/05/23 04:22:46;;;;;;;8.82;6.47;;;;;;;;;;4971442;28;20485;-78
2022/05/23 04:25:12;;;;;;;9.98;6.82;;;;;;;;;;4961856;28;20055;-78
2022/05/23 04:27:38;;;;;;;9.13;7.20;;;;;;;;;;4965570;28;20105;-78
2022/05/23 04:30:05;;;;;;;10.82;7.00;;;;;;;;;;4970903;28;20031;-78
2022/05/23 04:35:16;;;;;;;9.88;6.43;;;;;;;;;;4974287;28;20318;-78
2022/05/23 04:37:44;;;;;;;9.00;6.70;;;;;;;;;;4972495;28;20111;-78
2022/05/23 04:40:11;;;;;;;9.32;6.68;;;;;;;;;;4972738;28;20102;-78
2022/05/23 04:42:37;;;;;;;9.55;7.20;;;;;;;;;;4974326;28;20023;-79
2022/05/23 04:45:04;;;;;;;12.23;7.07;;;;;;;;;;4973620;28;20050;-79
2022/05/23 04:50:15;;;;;;;8.63;6.30;;;;;;;;;;4974708;28;20551;-78
2022/05/23 04:52:42;;;;;;;9.30;5.82;;;;;;;;;;4973282;28;20049;-78
2022/05/23 04:55:08;;;;;;;7.40;5.93;;;;;;;;;;4970883;28;20019;-78
2022/05/23 04:57:35;;;;;;;8.63;6.13;;;;;;;;;;4953095;28;20505;-78
2022/05/23 05:00:01;;;;;;;7.05;5.57;;;;;;;;;;4969489;28;20031;-78
2022/05/23 05:02:27;;;;;;;8.23;5.70;;;;;;;;;;4971088;28;20018;-78
2022/05/23 05:04:53;;;;;;;7.22;5.60;;;;;;;;;;4972165;28;20037;-79
2022/05/23 05:07:19;;;;;;;8.05;5.55;;;;;;;;;;4970404;28;20023;-78
2022/05/23 05:09:45;;;;;;;7.97;5.75;;;;;;;;;;4964433;28;20576;-78
2022/05/23 05:12:12;;;;;;;8.02;5.55;;;;;;;;;;4973416;28;20053;-78
2022/05/23 05:14:39;;;;;;;8.57;6.10;;;;;;;;;;4973534;28;20023;-78
2022/05/23 05:17:05;;;;;;;8.63;5.80;;;;;;;;;;4972949;28;20046;-76
2022/05/23 05:19:31;;;;;;;8.02;5.78;;;;;;;;;;4971860;28;20034;-77
2022/05/23 05:21:57;;;;;;;12.32;6.57;;;;;;;;;;4972442;28;20055;-77
2022/05/23 05:24:23;;;;;;;9.80;5.70;;;;;;;;;;4953012;28;20031;-76
2022/05/23 05:26:50;;;;;;;9.15;5.43;;;;;;;;;;4962115;28;20043;-76
2022/05/23 05:29:16;;;;;;;9.27;6.15;;;;;;;;;;4972350;28;20027;-76
2022/05/23 05:31:48;;;;;;;7.35;5.13;;;;;;;;;;4974478;28;20113;-76
2022/05/23 05:34:17;;;;;;;6.57;5.30;;;;;;;;;;4975804;28;20030;-77
2022/05/23 05:36:45;;;;;;;9.20;5.22;;;;;;;;;;4974861;28;20026;-77
2022/05/23 05:39:12;;;;;;;6.30;4.90;;;;;;;;;;4976465;28;20035;-78
2022/05/23 05:41:45;;;;;;;6.95;5.55;;;;;;;;;;4978932;28;20393;-79
2022/05/23 05:44:14;;;;;;;7.10;5.07;;;;;;;;;;4966083;28;20031;-79
2022/05/23 05:46:47;;;;;;;8.23;4.80;;;;;;;;;;4964962;28;20057;-78
2022/05/23 05:49:16;;;;;;;7.40;4.70;;;;;;;;;;4976528;28;20058;-79
2022/05/23 05:51:42;;;;;;;7.15;4.32;;;;;;;;;;4976790;28;20060;-78
2022/05/23 05:54:10;;;;;;;6.93;4.38;;;;;;;;;;4976472;28;20026;-78
2022/05/23 05:56:36;;;;;;;7.10;4.32;;;;;;;;;;4958811;28;20028;-78
2022/05/23 05:59:02;;;;;;;8.10;4.78;;;;;;;;;;4972583;28;20493;-78
2022/05/23 06:01:28;;;;;;;6.45;4.60;;;;;;;;;;4976434;28;20389;-78
2022/05/23 06:03:54;;;;;;;7.95;4.45;;;;;;;;;;4975248;28;20023;-78
2022/05/23 06:11:50;;;;;;;6.38;4.43;;;;;;;;;;4976683;28;20062;-78
2022/05/23 06:14:16;;;;;;;11.32;5.03;;;;;;;;;;4976304;28;20073;-79
2022/05/23 06:16:42;;;;;;;4.95;3.15;;;;;;;;;;4975875;28;20051;-78
2022/05/23 06:19:08;;;;;;;4.95;3.60;;;;;;;;;;4977765;28;20030;-78
2022/05/23 06:21:34;;;;;;;5.88;3.78;;;;;;;;;;4975882;28;20173;-79
2022/05/23 06:24:00;;;;;;;9.40;4.30;;;;;;;;;;4973982;28;20030;-78
2022/05/23 06:26:27;;;;;;;6.88;3.75;;;;;;;;;;4956854;28;20035;-78
2022/05/23 06:28:53;;;;;;;7.43;2.92;;;;;;;;;;4958618;28;20118;-79
2022/05/23 06:31:19;;;;;;;5.55;3.33;;;;;;;;;;4973192;28;20396;-78
2022/05/23 06:33:48;;;;;;;6.88;4.10;;;;;;;;;;4975019;28;20079;-76
2022/05/23 06:36:15;;;;;;;6.35;3.00;;;;;;;;;;4975544;28;20027;-76
2022/05/23 06:38:44;;;;;;;6.25;3.67;;;;;;;;;;4975213;28;20019;-76
2022/05/23 06:41:11;;;;;;;6.40;3.40;;;;;;;;;;4975228;28;20503;-80
2022/05/23 06:43:38;;;;;;;7.57;3.20;;;;;;;;;;4974649;28;20476;-76
2022/05/23 06:46:04;;;;;;;7.45;3.53;;;;;;;;;;4973439;28;20023;-76
2022/05/23 06:48:31;;;;;;;6.45;3.00;;;;;;;;;;4976281;28;20034;-78
2022/05/23 06:50:57;;;;;;;6.50;2.97;;;;;;;;;;4975839;28;20217;-79
2022/05/23 06:53:24;;;;;;;4.50;2.38;;;;;;;;;;4977134;28;20038;-79
2022/05/23 06:55:51;;;;;;;5.90;2.40;;;;;;;;;;4977564;28;20033;-79
2022/05/23 06:58:20;;;;;;;4.72;2.70;;;;;;;;;;4976153;28;20495;-78
2022/05/23 07:00:49;;;;;;;7.53;3.78;;;;;;;;;;4974754;28;20030;-76
2022/05/23 07:03:15;;;;;;;5.18;2.53;;;;;;;;;;4966665;28;20053;-77
2022/05/23 07:13:56;;;;;;;5.45;3.00;;;;;;;;;;4974081;28;20065;-77
2022/05/23 07:16:23;;;;;;;7.22;3.25;;;;;;;;;;4972834;28;20033;-78
2022/05/23 07:18:49;;;;;;;5.22;3.30;;;;;;;;;;4974603;28;20026;-76
2022/05/23 07:21:15;;;;;;;6.47;2.80;;;;;;;;;;4967405;28;20390;-77
2022/05/23 07:23:42;;;;;;;5.18;2.72;;;;;;;;;;4953900;28;20050;-76
2022/05/23 07:26:10;;;;;;;5.88;3.40;;;;;;;;;;4959713;28;20027;-76
2022/05/23 07:28:36;;;;;;;5.78;3.47;;;;;;;;;;4974016;28;20133;-76
2022/05/23 07:31:03;;;;;;;6.40;3.63;;;;;;;;;;4973610;28;20069;-76
2022/05/23 07:33:29;;;;;;;5.57;2.80;;;;;;;;;;4974025;28;20164;-77
2022/05/23 07:35:56;;;;;;;5.13;2.70;;;;;;;;;;4973216;28;20103;-76
2022/05/23 07:38:22;;;;;;;5.95;3.97;;;;;;;;;;4973095;28;20109;-77
2022/05/23 07:40:50;;;;;;;6.28;3.33;;;;;;;;;;4971915;28;20023;-76
2022/05/23 07:43:16;;;;;;;6.50;3.08;;;;;;;;;;4966480;28;20024;-77
2022/05/23 07:45:42;;;;;;;6.88;4.00;;;;;;;;;;4966662;28;20525;-77
2022/05/23 07:48:08;;;;;;;6.43;3.13;;;;;;;;;;4968407;28;20031;-77
2022/05/23 07:50:34;;;;;;;5.47;3.10;;;;;;;;;;4957582;28;20053;-77
2022/05/23 08:01:15;;;;;;;7.43;3.55;;;;;;;;;;4973114;28;20029;-76
2022/05/23 08:03:42;;;;;;;6.18;2.88;;;;;;;;;;4973470;28;20106;-76
2022/05/23 08:06:09;;;;;;;4.82;2.67;;;;;;;;;;4973681;28;20050;-76
2022/05/23 08:08:35;;;;;;;6.63;2.60;;;;;;;;;;4956615;28;20110;-76
2022/05/23 08:11:01;;;;;;;5.43;2.42;;;;;;;;;;4970989;28;20023;-77
2022/05/23 08:13:27;;;;;;;5.35;2.40;;;;;;;;;;4965077;28;20527;-77
2022/05/23 08:15:53;;;;;;;5.68;2.50;;;;;;;;;;4969716;28;20015;-76
2022/05/23 08:18:19;;;;;;;5.35;2.80;;;;;;;;;;4966850;28;20474;-76
2022/05/23 08:20:46;;;;;;;6.93;3.47;;;;;;;;;;4964525;28;20031;-76
2022/05/23 08:23:12;;;;;;;4.68;2.47;;;;;;;;;;4972009;28;21600;-78
2022/05/23 08:25:38;;;;;;;6.53;2.38;;;;;;;;;;4970844;28;20105;-78
2022/05/23 08:28:04;;;;;;;5.68;2.75;;;;;;;;;;4971875;28;20050;-77
2022/05/23 08:30:30;;;;;;;4.70;2.33;;;;;;;;;;4972737;28;20501;-76
2022/05/23 08:32:56;;;;;;;4.55;2.10;;;;;;;;;;4971753;28;20018;-78
2022/05/23 08:35:24;;;;;;;4.68;2.00;;;;;;;;;;4972501;28;20027;-76
2022/05/23 08:37:52;;;;;;;4.82;1.83;;;;;;;;;;4966167;28;20378;-76
2022/05/23 08:40:18;;;;;;;5.85;2.10;;;;;;;;;;4967343;28;20050;-77
2022/05/23 08:42:51;;;;;;;5.47;2.05;;;;;;;;;;4972346;28;20031;-77
2022/05/23 08:45:23;;;;;;;5.38;1.83;;;;;;;;;;4972982;28;20445;-75
2022/05/23 08:47:49;;;;;;;4.07;1.70;;;;;;;;;;4966541;28;20023;-76
2022/05/23 08:50:19;;;;;;;6.40;2.28;;;;;;;;;;4953617;28;20024;-76
2022/05/23 08:52:48;;;;;;;3.53;1.90;;;;;;;;;;4971540;28;20027;-75
2022/05/23 08:55:17;;;;;;;5.35;1.95;;;;;;;;;;4972611;28;20035;-77
2022/05/23 08:57:52;;;;;;;3.50;1.83;;;;;;;;;;4970905;28;20027;-76
2022/05/23 09:00:24;;;;;;;5.53;2.30;;;;;;;;;;4953723;28;20324;-76
2022/05/23 09:02:50;;;;;;;5.00;2.17;;;;;;;;;;4957051;28;20504;-76
2022/05/23 09:05:19;;;;;;;5.75;2.47;;;;;;;;;;4968320;28;20026;-76
2022/05/23 09:07:48;;;;;;;5.70;2.40;;;;;;;;;;4968208;28;20215;-77
2022/05/23 09:10:24;;;;;;;5.05;2.30;;;;;;;;;;4971807;28;20090;-76
2022/05/23 09:12:51;;;;;;;5.38;2.15;;;;;;;;;;4965708;28;20030;-76
2022/05/23 09:15:17;;;;;;;4.70;2.00;;;;;;;;;;4953391;28;20034;-77
2022/05/23 09:17:44;;;;;;;4.55;1.70;;;;;;;;;;4956197;28;20233;-77
2022/05/23 09:20:16;;;;;;;5.15;1.90;;;;;;;;;;4972192;28;20474;-77
2022/05/23 09:22:47;;;;;;;4.60;1.85;;;;;;;;;;4972122;28;20030;-76
2022/05/23 09:25:14;;;;;;;4.45;2.30;;;;;;;;;;4956177;28;20026;-77
2022/05/23 09:27:40;;;;;;;5.00;2.25;;;;;;;;;;4953850;28;20489;-77
2022/05/23 09:30:10;;;;;;;4.95;1.90;;;;;;;;;;4953218;28;20032;-77
2022/05/23 09:32:39;;;;;;;6.28;1.88;;;;;;;;;;4962170;28;20023;-77
2022/05/23 09:35:19;;;;;;;4.72;1.90;;;;;;;;;;4972415;28;20081;-77
2022/05/23 09:37:47;;;;;;;4.80;2.00;;;;;;;;;;4973850;28;20040;-77
2022/05/23 09:40:26;;;;;;;5.55;2.10;;;;;;;;;;4957179;28;20031;-77
2022/05/23 09:48:24;;;;;;;5.80;1.80;;;;;;;;;;4957655;28;20038;-77
2022/05/23 09:50:55;;;;;;;6.88;2.17;;;;;;;;;;4972252;28;20142;-76
2022/05/23 09:53:38;;;;;;;6.10;1.88;;;;;;;;;;4971099;28;20034;-77
2022/05/23 09:56:23;;;;;;;5.80;2.13;;;;;;;;;;4964075;28;20023;-77
2022/05/23 09:58:50;;;;;;;4.00;1.92;;;;;;;;;;4960319;28;20027;-76
2022/05/23 10:01:25;;;;;;;4.30;1.85;;;;;;;;;;4952609;28;20051;-78
2022/05/23 10:03:51;;;;;;;5.25;2.20;;;;;;;;;;4954036;28;20497;-78
2022/05/23 10:06:18;;;;;;;4.78;2.15;;;;;;;;;;4967286;28;20019;-80
2022/05/23 10:08:45;;;;;;;5.72;2.60;;;;;;;;;;4968888;28;20026;-78
2022/05/23 10:11:22;;;;;;;4.75;2.05;;;;;;;;;;4972231;28;20066;-77
2022/05/23 10:13:57;;;;;;;5.35;2.45;;;;;;;;;;4970552;28;20092;-76
2022/05/23 10:16:29;;;;;;;4.28;2.53;;;;;;;;;;4970395;28;20042;-77
2022/05/23 10:18:55;;;;;;;4.85;2.50;;;;;;;;;;4960938;28;20026;-77
2022/05/23 10:21:27;;;;;;;5.18;2.30;;;;;;;;;;4956268;28;20020;-79
2022/05/23 10:24:01;;;;;;;5.15;2.25;;;;;;;;;;4975169;28;20038;-77
2022/05/23 10:26:29;;;;;;;7.30;3.33;;;;;;;;;;4975092;28;20034;-78
2022/05/23 10:29:02;;;;;;;4.95;2.25;;;;;;;;;;4975577;28;20466;-77
2022/05/23 10:31:28;;;;;;;;;;;;;;;;;;4961739;28;20027;-78
2022/05/23 10:33:59;;;;;;;5.95;2.70;;;;;;;;;;4956157;28;20385;-77
2022/05/23 10:36:29;;;;;;;5.88;2.95;;;;;;;;;;4970731;28;20604;-78
2022/05/23 10:44:49;;;;;;;5.25;2.75;;;;;;;;;;4957174;28;20101;-78
2022/05/23 10:47:20;;;;;;;5.32;2.72;;;;;;;;;;4961499;28;20049;-78
2022/05/23 10:50:06;;;;;;;6.15;2.70;;;;;;;;;;4975522;28;20022;-79
2022/05/23 10:52:32;;;;;;;7.50;2.75;;;;;;;;;;4976744;28;20037;-78
2022/05/23 10:55:08;;;;;;;5.43;2.75;;;;;;;;;;4976633;28;20018;-78
2022/05/23 10:57:59;;;;;;;6.03;2.88;;;;;;;;;;4972901;28;20081;-78
2022/05/23 11:00:32;;;;;;;5.03;2.63;;;;;;;;;;4955716;29;20038;-80
2022/05/23 11:03:08;;;;;;;5.65;2.60;;;;;;;;;;4969806;28;20034;-77
2022/05/23 11:05:40;;;;;;;5.38;2.83;;;;;;;;;;4974927;28;20042;-77
2022/05/23 11:08:19;;;;;;;6.35;2.78;;;;;;;;;;4974507;28;20062;-78
2022/05/23 11:11:01;;;;;;;5.65;2.70;;;;;;;;;;4974157;28;20489;-77
2022/05/23 11:13:53;;;;;;;6.23;2.97;;;;;;;;;;4967146;28;20043;-80
2022/05/23 11:16:23;;;;;;;5.47;2.60;;;;;;;;;;4958832;28;20559;-78
2022/05/23 11:18:52;;;;;;;5.22;2.80;;;;;;;;;;4962310;28;20035;-78
2022/05/23 11:21:41;;;;;;;6.05;3.20;;;;;;;;;;4975763;28;20069;-79
2022/05/23 11:24:11;;;;;;;13.43;4.70;;;;;;;;;;4975913;28;20039;-78
2022/05/23 11:26:42;;;;;;;6.60;3.10;;;;;;;;;;4974928;28;20073;-77
2022/05/23 11:35:00;;;;;;;6.50;2.78;;;;;;;;;;4965804;28;20154;-78
2022/05/23 11:40:08;;;;;;;4.65;2.80;;;;;;;;;;4958241;28;20126;-78
2022/05/23 11:42:53;;;;;;;7.35;2.78;;;;;;;;;;4975335;28;20107;-78
2022/05/23 11:48:34;;;;;;;4.40;2.47;;;;;;;;;;4967306;28;20075;-79
2022/05/23 11:51:09;;;;;;;5.93;2.55;;;;;;;;;;4974987;28;20022;-79
2022/05/23 11:53:37;;;;;;;5.57;2.55;;;;;;;;;;4974789;28;20473;-78
2022/05/23 11:56:23;;;;;;;6.15;2.70;;;;;;;;;;4974045;28;20029;-79
2022/05/23 11:58:50;;;;;;;5.80;2.75;;;;;;;;;;4974060;28;20386;-79
2022/05/23 12:01:19;;;;;;;5.20;2.95;;;;;;;;;;4974393;28;20027;-79
2022/05/23 12:03:50;;;;;;;5.32;2.83;;;;;;;;;;4967728;28;20027;-78
2022/05/23 12:06:26;;;;;;;5.07;2.33;;;;;;;;;;4962540;28;20093;-78
2022/05/23 12:08:58;;;;;;;6.65;3.30;;;;;;;;;;4956119;28;20506;-79
2022/05/23 12:11:28;;;;;;;6.57;3.08;;;;;;;;;;4962232;28;20081;-80
2022/05/23 12:13:58;;;;;;;5.07;2.70;;;;;;;;;;4965135;28;20116;-77
2022/05/23 12:16:37;;;;;;;5.22;2.88;;;;;;;;;;4967581;28;20224;-78
2022/05/23 12:19:22;;;;;;;5.18;2.78;;;;;;;;;;4973076;28;20027;-77
2022/05/23 12:21:49;;;;;;;5.57;2.67;;;;;;;;;;4972325;28;20109;-77
2022/05/23 12:24:24;;;;;;;6.40;2.95;;;;;;;;;;4957491;28;20038;-78
2022/05/23 12:26:52;;;;;;;5.30;2.72;;;;;;;;;;4967331;28;20177;-78
2022/05/23 12:29:22;;;;;;;5.88;2.78;;;;;;;;;;4972511;28;20109;-78
2022/05/23 12:32:08;;;;;;;7.35;3.00;;;;;;;;;;4973468;28;20030;-76
2022/05/23 12:34:35;;;;;;;5.20;3.10;;;;;;;;;;4971885;28;20034;-77
2022/05/23 12:37:01;;;;;;;6.35;2.72;;;;;;;;;;4955812;28;20042;-77
2022/05/23 12:39:30;;;;;;;6.57;3.08;;;;;;;;;;4953323;28;20027;-78
2022/05/23 12:42:15;;;;;;;6.25;3.25;;;;;;;;;;4968522;28;20034;-77
2022/05/23 12:44:53;;;;;;;7.55;3.17;;;;;;;;;;4955165;28;20515;-77
2022/05/23 12:47:19;;;;;;;6.15;3.40;;;;;;;;;;4973041;28;20037;-78
2022/05/23 12:49:51;;;;;;;5.85;2.80;;;;;;;;;;4972409;28;20031;-78
2022/05/23 12:52:20;;;;;;;5.47;3.10;;;;;;;;;;4972348;28;20035;-77
2022/05/23 12:55:05;;;;;;;8.50;3.17;;;;;;;;;;4970975;28;20058;-77
2022/05/23 12:57:50;;;;;;;6.10;2.95;;;;;;;;;;4953211;28;20042;-77
2022/05/23 13:00:26;;;;;;;4.55;2.80;;;;;;;;;;4971129;28;20081;-78
2022/05/23 13:03:07;;;;;;;7.35;3.30;;;;;;;;;;4965749;28;20034;-77
2022/05/23 13:05:39;;;;;;;6.80;3.15;;;;;;;;;;4953801;28;20141;-77
2022/05/23 13:08:19;;;;;;;7.22;3.33;;;;;;;;;;4960219;28;20019;-77
2022/05/23 13:10:48;;;;;;;5.30;2.97;;;;;;;;;;4972674;28;20556;-78
2022/05/23 13:13:31;;;;;;;7.53;2.88;;;;;;;;;;4972209;28;20049;-76
2022/05/23 13:16:13;;;;;;;9.20;3.70;;;;;;;;;;4972468;28;20023;-77
2022/05/23 13:24:48;;;;;;;9.77;4.30;;;;;;;;;;4953501;28;20086;-80
2022/05/23 13:27:03;;;;;;;8.75;3.30;;;;;;;;;;4960542;28;20043;-76
2022/05/23 13:29:30;;;;;;;4.90;2.88;;;;;;;;;;4962817;28;20031;-78
2022/05/23 13:32:04;;;;;;;6.35;3.38;;;;;;;;;;4967818;28;20022;-78
2022/05/23 13:34:34;;;;;;;6.35;3.03;;;;;;;;;;4972180;28;20061;-78
2022/05/23 13:37:00;;;;;;;6.68;3.40;;;;;;;;;;4961524;28;20110;-77
2022/05/23 13:39:26;;;;;;;10.07;3.95;;;;;;;;;;4956218;28;20055;-77
2022/05/23 13:41:52;;;;;;;6.82;3.30;;;;;;;;;;4972784;28;20061;-77
2022/05/23 13:44:23;;;;;;;5.35;3.22;;;;;;;;;;4971273;28;20043;-78
2022/05/23 13:46:50;;;;;;;4.55;2.80;;;;;;;;;;4971635;28;20464;-77
2022/05/23 13:49:24;;;;;;;7.00;3.47;;;;;;;;;;4970908;28;20054;-77
2022/05/23 13:51:53;;;;;;;5.53;3.40;;;;;;;;;;4973750;28;20030;-77
2022/05/23 13:54:22;;;;;;;5.75;3.25;;;;;;;;;;4962202;28;20113;-77
2022/05/23 13:56:49;;;;;;;6.78;3.60;;;;;;;;;;4961170;28;20102;-78
2022/05/23 13:59:19;;;;;;;5.93;3.10;;;;;;;;;;4975727;28;20031;-80
2022/05/23 14:01:46;;;;;;;6.90;3.58;;;;;;;;;;4976496;28;20030;-77
2022/05/23 14:04:14;;;;;;;5.90;3.28;;;;;;;;;;4960474;28;20031;-77
2022/05/23 14:06:43;;;;;;;6.13;3.50;;;;;;;;;;4972035;28;20031;-79
2022/05/23 14:09:11;;;;;;;7.38;3.83;;;;;;;;;;4975848;28;20030;-77
2022/05/23 14:11:39;;;;;;;8.18;3.80;;;;;;;;;;4974371;28;20030;-78
2022/05/23 14:14:14;;;;;;;6.57;3.58;;;;;;;;;;4979036;28;20094;-78
2022/05/23 14:16:40;;;;;;;6.00;3.70;;;;;;;;;;4976838;28;20027;-78
2022/05/23 14:19:14;;;;;;;8.15;3.58;;;;;;;;;;4975331;28;20505;-78
2022/05/23 14:21:40;;;;;;;6.88;3.35;;;;;;;;;;4975904;28;20034;-76
2022/05/23 14:24:26;;;;;;;7.65;4.40;;;;;;;;;;4975048;28;20026;-77
2022/05/23 14:27:11;;;;;;;6.00;3.63;;;;;;;;;;4970738;28;20047;-78
2022/05/23 14:29:37;;;;;;;7.50;4.15;;;;;;;;;;4971770;28;20373;-79
2022/05/23 14:32:03;;;;;;;6.43;3.50;;;;;;;;;;4977527;28;20062;-77
2022/05/23 14:34:29;;;;;;;6.97;3.47;;;;;;;;;;4970070;28;20058;-77
2022/05/23 14:36:57;;;;;;;5.43;3.60;;;;;;;;;;4975791;28;20093;-77
2022/05/23 14:39:26;;;;;;;9.10;4.45;;;;;;;;;;4966335;28;20065;-77
2022/05/23 14:41:53;;;;;;;8.05;3.85;;;;;;;;;;4956015;28;20209;-78
2022/05/23 14:44:19;;;;;;;6.90;4.20;;;;;;;;;;4958151;28;20508;-79
2022/05/23 14:46:58;;;;;;;5.47;3.55;;;;;;;;;;4963473;28;20042;-78
2022/05/23 14:49:33;;;;;;;7.03;3.85;;;;;;;;;;4975424;28;20243;-76
2022/05/23 14:51:59;;;;;;;8.43;3.70;;;;;;;;;;4977501;28;20062;-77
2022/05/23 15:00:37;;;;;;;7.00;3.67;;;;;;;;;;4962497;28;20106;-76
2022/05/23 15:02:56;;;;;;;7.10;3.70;;;;;;;;;;4973449;28;20132;-77
2022/05/23 15:05:22;;;;;;;6.05;3.80;;;;;;;;;;4973946;28;20402;-77
2022/05/23 15:07:58;;;;;;;5.95;3.60;;;;;;;;;;4974918;28;20037;-78
2022/05/23 15:10:25;;;;;;;6.38;3.90;;;;;;;;;;4974433;28;20043;-77
2022/05/23 15:12:51;;;;;;;6.32;3.80;;;;;;;;;;4974941;28;20482;-78
2022/05/23 15:15:19;;;;;;;6.47;4.03;;;;;;;;;;4975030;28;20026;-77
2022/05/23 15:17:46;;;;;;;5.97;3.90;;;;;;;;;;4974844;28;20037;-80
2022/05/23 15:20:12;;;;;;;7.97;4.47;;;;;;;;;;4973969;28;20027;-77
2022/05/23 15:22:41;;;;;;;6.03;4.20;;;;;;;;;;4974592;28;20155;-77
2022/05/23 15:25:09;;;;;;;8.35;4.25;;;;;;;;;;4964107;28;20058;-76
2022/05/23 15:27:35;;;;;;;8.30;4.47;;;;;;;;;;4965781;28;20458;-78
2022/05/23 15:30:04;;;;;;;8.10;3.92;;;;;;;;;;4968723;28;20026;-78
2022/05/23 15:32:30;;;;;;;6.25;4.03;;;;;;;;;;4974151;28;20029;-77
2022/05/23 15:34:56;;;;;;;6.93;3.78;;;;;;;;;;4973907;28;20026;-77
2022/05/23 15:37:22;;;;;;;6.47;3.97;;;;;;;;;;4974261;28;20029;-76
2022/05/23 15:39:48;;;;;;;6.57;3.67;;;;;;;;;;4970430;28;20027;-77
2022/05/23 15:42:24;;;;;;;7.28;3.78;;;;;;;;;;4975093;28;20440;-78
2022/05/23 15:44:51;;;;;;;7.97;3.95;;;;;;;;;;4974457;28;20026;-76
2022/05/23 15:47:20;;;;;;;7.40;4.07;;;;;;;;;;4973869;28;20026;-78
2022/05/23 15:49:46;;;;;;;6.63;3.90;;;;;;;;;;4968231;28;20058;-77
2022/05/23 15:52:12;;;;;;;6.93;3.72;;;;;;;;;;4974235;28;20026;-79
2022/05/23 15:54:38;;;;;;;9.45;3.70;;;;;;;;;;4974528;28;20138;-79
2022/05/23 15:57:05;;;;;;;7.10;3.95;;;;;;;;;;4960692;28;20023;-77
2022/05/23 15:59:31;;;;;;;6.07;4.00;;;;;;;;;;4971924;28;21912;-77
2022/05/23 16:01:57;;;;;;;7.72;4.05;;;;;;;;;;4972277;28;20023;-76
2022/05/23 16:04:27;;;;;;;5.82;3.85;;;;;;;;;;4974199;28;20413;-77
2022/05/23 16:06:53;;;;;;;6.95;3.80;;;;;;;;;;4973203;28;20035;-76
2022/05/23 16:09:19;;;;;;;6.10;4.03;;;;;;;;;;4973704;28;20042;-79